createdAt,value
2018-02-27T00:00:28.467Z,99.90
2018-02-27T00:02:56.853Z,99.90
2018-02-27T00:05:25.511Z,99.90
2018-02-27T00:07:53.951Z,99.90
2018-02-27T00:10:22.373Z,99.90
2018-02-27T00:12:50.847Z,99.90
2018-02-27T00:15:20.285Z,99.90
2018-02-27T00:17:48.937Z,99.90
2018-02-27T00:20:17.341Z,99.90
2018-02-27T00:22:45.538Z,99.90
2018-02-27T00:25:13.931Z,99.90
2018-02-27T00:27:43.093Z,99.90
2018-02-27T00:30:11.759Z,99.90
2018-02-27T00:32:40.139Z,99.90
2018-02-27T00:35:08.539Z,99.90
2018-02-27T00:37:37.194Z,99.90
2018-02-27T00:40:05.582Z,99.90
2018-02-27T00:42:34.346Z,99.90
2018-02-27T00:45:02.730Z,99.90
2018-02-27T00:47:31.238Z,99.90
2018-02-27T00:49:59.894Z,99.90
2018-02-27T00:52:29.338Z,99.90
2018-02-27T00:54:57.797Z,99.90
2018-02-27T00:57:26.190Z,99.90
2018-02-27T00:59:54.858Z,99.90
2018-02-27T01:02:24.281Z,99.90
2018-02-27T01:04:52.672Z,99.90
2018-02-27T01:07:21.202Z,99.90
2018-02-27T01:09:50.626Z,99.90
2018-02-27T01:12:19.280Z,99.90
2018-02-27T01:14:47.764Z,99.90
2018-02-27T01:17:16.377Z,99.90
2018-02-27T01:19:45.055Z,99.90
2018-02-27T01:22:13.732Z,99.90
2018-02-27T01:24:42.405Z,99.90
2018-02-27T01:27:11.005Z,99.90
2018-02-27T01:29:39.455Z,99.90
2018-02-27T01:32:08.127Z,99.90
2018-02-27T01:34:36.745Z,99.90
2018-02-27T01:37:05.352Z,99.90
2018-02-27T01:39:33.742Z,99.90
2018-02-27T01:42:02.182Z,99.90
2018-02-27T01:44:30.567Z,99.90
2018-02-27T01:46:59.049Z,99.90
2018-02-27T01:49:27.699Z,99.90
2018-02-27T01:51:56.202Z,99.90
2018-02-27T01:54:24.898Z,99.90
2018-02-27T01:56:53.480Z,99.90
2018-02-27T01:59:22.151Z,99.90
2018-02-27T02:01:50.542Z,99.90
2018-02-27T02:04:19.106Z,99.90
2018-02-27T02:06:47.586Z,99.90
2018-02-27T02:09:15.984Z,99.90
2018-02-27T02:11:45.394Z,99.90
2018-02-27T02:14:14.106Z,99.90
2018-02-27T02:16:42.750Z,99.90
2018-02-27T02:19:11.337Z,99.90
2018-02-27T02:21:40.004Z,99.90
2018-02-27T02:24:08.526Z,99.90
2018-02-27T02:26:37.095Z,99.90
2018-02-27T02:29:05.637Z,99.90
2018-02-27T02:31:34.130Z,99.90
2018-02-27T02:34:02.903Z,99.90
2018-02-27T02:36:31.834Z,99.90
2018-02-27T02:39:00.307Z,99.90
2018-02-27T02:41:29.072Z,99.90
2018-02-27T02:43:58.511Z,99.90
2018-02-27T02:46:27.805Z,99.90
2018-02-27T02:48:56.199Z,99.90
2018-02-27T02:51:24.866Z,99.90
2018-02-27T02:53:53.522Z,99.90
2018-02-27T02:56:21.913Z,99.90
2018-02-27T02:58:51.230Z,99.90
2018-02-27T03:01:19.895Z,99.90
2018-02-27T03:03:48.279Z,99.90
2018-02-27T03:06:17.574Z,99.90
2018-02-27T03:08:46.090Z,99.90
2018-02-27T03:11:14.475Z,99.90
2018-02-27T03:13:42.861Z,99.90
2018-02-27T03:16:11.562Z,99.90
2018-02-27T03:18:40.434Z,99.90
2018-02-27T03:21:08.870Z,99.90
2018-02-27T03:23:37.261Z,99.90
2018-02-27T03:26:05.646Z,99.90
2018-02-27T03:28:34.309Z,99.90
2018-02-27T03:31:02.968Z,99.90
2018-02-27T03:33:32.393Z,99.90
2018-02-27T03:36:01.164Z,99.90
2018-02-27T03:38:29.562Z,99.90
2018-02-27T03:40:58.226Z,99.90
2018-02-27T03:43:26.890Z,99.90
2018-02-27T03:45:56.045Z,99.90
2018-02-27T03:48:24.508Z,99.90
2018-02-27T03:50:53.173Z,99.90
2018-02-27T03:53:22.613Z,99.90
2018-02-27T03:55:51.995Z,99.90
2018-02-27T03:58:20.667Z,99.90
2018-02-27T04:00:49.059Z,99.90
2018-02-27T04:03:17.451Z,99.90
2018-02-27T04:05:45.838Z,99.90
2018-02-27T04:08:15.173Z,99.90
2018-02-27T04:10:43.558Z,99.90
2018-02-27T04:13:12.087Z,99.90
2018-02-27T04:15:40.482Z,99.90
2018-02-27T04:18:09.830Z,99.90
2018-02-27T04:20:39.278Z,99.90
2018-02-27T04:23:07.938Z,99.90
2018-02-27T04:25:36.843Z,99.90
2018-02-27T04:28:05.546Z,99.90
2018-02-27T04:30:34.214Z,99.90
2018-02-27T04:33:02.773Z,99.90
2018-02-27T04:35:32.189Z,99.90
2018-02-27T04:38:00.858Z,99.90
2018-02-27T04:40:29.458Z,99.90
2018-02-27T04:42:58.130Z,99.90
2018-02-27T04:45:26.702Z,99.90
2018-02-27T04:47:55.095Z,99.90
2018-02-27T04:50:23.862Z,99.90
2018-02-27T04:52:52.252Z,99.90
2018-02-27T04:55:20.931Z,99.90
2018-02-27T04:57:49.329Z,99.90
2018-02-27T05:00:17.717Z,99.90
2018-02-27T05:02:45.905Z,99.90
2018-02-27T05:05:14.287Z,99.90
2018-02-27T05:07:43.446Z,99.90
2018-02-27T05:10:11.848Z,99.90
2018-02-27T05:12:40.507Z,99.90
2018-02-27T05:15:09.071Z,99.90
2018-02-27T05:17:38.506Z,99.90
2018-02-27T05:20:06.897Z,99.90
2018-02-27T05:22:35.574Z,99.90
2018-02-27T05:25:03.630Z,99.90
2018-02-27T05:27:32.340Z,99.90
2018-02-27T05:30:01.263Z,99.90
2018-02-27T05:32:29.913Z,99.90
2018-02-27T05:34:58.314Z,99.90
2018-02-27T05:37:27.474Z,99.90
2018-02-27T05:39:56.158Z,99.90
2018-02-27T05:42:24.669Z,99.90
2018-02-27T05:44:53.257Z,99.90
2018-02-27T05:47:21.764Z,99.90
2018-02-27T05:49:50.469Z,99.90
2018-02-27T05:52:19.138Z,99.90
2018-02-27T05:54:47.754Z,99.90
2018-02-27T05:57:16.145Z,99.90
2018-02-27T05:59:45.313Z,99.90
2018-02-27T06:02:13.802Z,99.90
2018-02-27T06:04:42.192Z,99.90
2018-02-27T06:07:11.681Z,99.90
2018-02-27T06:09:39.735Z,99.90
2018-02-27T06:12:08.131Z,99.90
2018-02-27T06:14:36.790Z,99.90
2018-02-27T06:17:05.220Z,99.90
2018-02-27T06:19:33.875Z,99.90
2018-02-27T06:22:02.548Z,99.90
2018-02-27T06:24:30.931Z,99.90
2018-02-27T06:26:59.326Z,99.90
2018-02-27T06:29:28.011Z,99.90
2018-02-27T06:31:57.314Z,99.90
2018-02-27T06:34:25.985Z,99.90
2018-02-27T06:36:54.377Z,99.90
2018-02-27T06:39:22.766Z,99.90
2018-02-27T06:41:51.159Z,99.90
2018-02-27T06:44:20.320Z,99.90
2018-02-27T06:46:48.718Z,99.90
2018-02-27T06:49:17.393Z,99.90
2018-02-27T06:51:45.733Z,99.90
2018-02-27T06:54:14.133Z,99.90
2018-02-27T06:56:42.521Z,99.90
2018-02-27T06:59:11.198Z,99.90
2018-02-27T07:01:39.857Z,99.90
2018-02-27T07:04:09.294Z,99.90
2018-02-27T07:06:37.965Z,99.90
2018-02-27T07:09:06.365Z,99.90
2018-02-27T07:11:34.800Z,99.90
2018-02-27T07:14:03.623Z,99.90
2018-02-27T07:16:32.020Z,99.90
2018-02-27T07:19:01.185Z,99.90
2018-02-27T07:21:29.667Z,99.90
2018-02-27T07:23:58.902Z,99.90
2018-02-27T07:26:36.529Z,99.90
2018-02-27T07:29:04.931Z,99.90
2018-02-27T07:31:33.605Z,99.90
2018-02-27T07:34:03.066Z,99.90
2018-02-27T07:36:32.215Z,99.90
2018-02-27T07:39:00.885Z,99.90
2018-02-27T07:41:29.266Z,99.90
2018-02-27T07:43:57.985Z,99.90
2018-02-27T07:46:26.382Z,99.90
2018-02-27T07:48:54.947Z,99.90
2018-02-27T07:51:23.710Z,99.90
2018-02-27T07:53:52.299Z,99.90
2018-02-27T07:56:20.858Z,99.90
2018-02-27T07:58:50.313Z,99.90
2018-02-27T08:01:18.995Z,99.90
2018-02-27T08:03:47.385Z,99.90
2018-02-27T08:06:16.555Z,99.90
2018-02-27T08:08:45.309Z,99.90
2018-02-27T08:11:14.865Z,99.90
2018-02-27T08:13:43.293Z,99.90
2018-02-27T08:16:12.739Z,99.90
2018-02-27T08:18:41.076Z,99.90
2018-02-27T08:21:09.602Z,99.90
2018-02-27T08:23:38.258Z,99.90
2018-02-27T08:26:06.650Z,99.90
2018-02-27T08:28:35.275Z,99.90
2018-02-27T08:31:04.446Z,99.90
2018-02-27T08:33:33.127Z,99.90
2018-02-27T08:36:01.798Z,99.90
2018-02-27T08:38:30.214Z,99.90
2018-02-27T08:40:59.515Z,99.90
2018-02-27T08:43:28.678Z,99.90
2018-02-27T08:45:57.250Z,99.90
2018-02-27T08:48:27.274Z,99.90
2018-02-27T08:50:56.620Z,99.90
2018-02-27T08:53:26.178Z,97.40
2018-02-27T08:55:55.680Z,97.90
2018-02-27T08:58:24.458Z,98.00
2018-02-27T09:00:52.958Z,96.80
2018-02-27T09:03:21.656Z,94.80
2018-02-27T09:05:50.310Z,92.80
2018-02-27T09:08:18.989Z,92.60
2018-02-27T09:10:47.374Z,88.60
2018-02-27T09:13:15.771Z,90.70
2018-02-27T09:15:44.934Z,91.00
2018-02-27T09:18:13.620Z,91.00
2018-02-27T09:20:42.276Z,83.00
2018-02-27T09:23:10.942Z,89.20
2018-02-27T09:25:39.409Z,88.90
2018-02-27T09:28:07.805Z,86.80
2018-02-27T09:30:36.442Z,77.40
2018-02-27T09:33:05.212Z,77.30
2018-02-27T09:35:33.624Z,71.90
2018-02-27T09:38:02.087Z,76.90
2018-02-27T09:40:30.470Z,74.70
2018-02-27T09:42:58.858Z,80.70
2018-02-27T09:45:27.246Z,79.70
2018-02-27T09:47:55.643Z,75.30
2018-02-27T09:50:24.882Z,70.80
2018-02-27T09:52:53.316Z,70.80
2018-02-27T09:55:21.961Z,69.50
2018-02-27T09:57:50.349Z,65.40
2018-02-27T10:00:19.014Z,63.30
2018-02-27T10:02:47.738Z,60.50
2018-02-27T10:05:16.567Z,63.10
2018-02-27T10:07:46.013Z,63.10
2018-02-27T10:10:14.493Z,63.00
2018-02-27T10:12:43.159Z,62.40
2018-02-27T10:15:10.899Z,59.60
2018-02-27T10:17:40.124Z,61.80
2018-02-27T10:20:08.511Z,56.20
2018-02-27T10:22:36.903Z,54.30
2018-02-27T10:25:05.307Z,54.20
2018-02-27T10:27:34.037Z,53.80
2018-02-27T10:30:02.854Z,57.40
2018-02-27T10:32:31.246Z,56.70
2018-02-27T10:35:00.442Z,54.40
2018-02-27T10:37:29.582Z,53.10
2018-02-27T10:39:57.978Z,53.00
2018-02-27T10:42:27.511Z,55.00
2018-02-27T10:44:55.902Z,55.00
2018-02-27T10:47:24.623Z,55.10
2018-02-27T10:49:53.014Z,55.40
2018-02-27T10:52:21.678Z,55.90
2018-02-27T10:54:50.234Z,54.50
2018-02-27T10:57:18.889Z,55.10
2018-02-27T10:59:47.374Z,52.90
2018-02-27T11:02:16.649Z,54.70
2018-02-27T11:04:46.081Z,52.70
2018-02-27T11:07:14.620Z,52.70
2018-02-27T11:09:43.094Z,52.20
2018-02-27T11:12:12.525Z,54.70
2018-02-27T11:14:41.177Z,54.80
2018-02-27T11:17:09.568Z,54.20
2018-02-27T11:19:38.221Z,54.70
2018-02-27T11:22:06.926Z,54.50
2018-02-27T11:24:36.254Z,53.70
2018-02-27T11:27:04.921Z,53.70
2018-02-27T11:29:33.333Z,51.80
2018-02-27T11:32:01.719Z,50.80
2018-02-27T11:34:31.171Z,50.60
2018-02-27T11:37:00.613Z,48.40
2018-02-27T11:39:29.270Z,48.40
2018-02-27T11:41:57.663Z,48.40
2018-02-27T11:44:26.320Z,49.50
2018-02-27T11:46:54.721Z,50.60
2018-02-27T11:49:23.422Z,51.70
2018-02-27T11:51:51.990Z,51.20
2018-02-27T11:54:20.378Z,51.80
2018-02-27T11:56:49.586Z,52.90
2018-02-27T11:59:17.982Z,52.60
2018-02-27T12:01:46.652Z,53.00
2018-02-27T12:04:15.330Z,49.40
2018-02-27T12:06:44.006Z,52.00
2018-02-27T12:09:12.668Z,55.90
2018-02-27T12:11:41.063Z,57.10
2018-02-27T12:14:09.454Z,56.80
2018-02-27T12:16:37.849Z,54.30
2018-02-27T12:19:06.313Z,54.30
2018-02-27T12:21:34.925Z,58.20
2018-02-27T12:24:03.593Z,58.10
2018-02-27T12:26:32.523Z,54.40
2018-02-27T12:29:01.149Z,54.10
2018-02-27T12:31:30.022Z,53.10
2018-02-27T12:33:59.321Z,51.50
2018-02-27T12:36:27.708Z,51.60
2018-02-27T12:38:56.634Z,53.10
2018-02-27T12:41:25.999Z,52.70
2018-02-27T12:43:54.236Z,52.50
2018-02-27T12:46:22.965Z,52.20
2018-02-27T12:48:51.620Z,53.50
2018-02-27T12:51:20.233Z,52.90
2018-02-27T12:53:48.626Z,51.80
2018-02-27T12:56:17.997Z,48.60
2018-02-27T12:58:46.403Z,48.60
2018-02-27T13:01:15.087Z,49.90
2018-02-27T13:03:43.759Z,52.00
2018-02-27T13:06:12.411Z,53.60
2018-02-27T13:08:40.794Z,53.90
2018-02-27T13:11:10.221Z,56.10
2018-02-27T13:13:38.898Z,56.10
2018-02-27T13:16:07.550Z,59.40
2018-02-27T13:18:36.251Z,59.50
2018-02-27T13:21:05.570Z,64.00
2018-02-27T13:23:34.222Z,63.90
2018-02-27T13:26:02.892Z,62.70
2018-02-27T13:28:31.806Z,63.90
2018-02-27T13:31:00.221Z,68.10
2018-02-27T13:33:28.772Z,68.30
2018-02-27T13:35:57.550Z,67.70
2018-02-27T13:38:26.670Z,67.80
2018-02-27T13:40:55.681Z,66.90
2018-02-27T13:43:24.114Z,76.70
2018-02-27T13:45:52.817Z,76.00
2018-02-27T13:48:21.214Z,75.70
2018-02-27T13:50:49.609Z,76.60
2018-02-27T13:53:18.268Z,75.10
2018-02-27T13:55:46.887Z,77.70
2018-02-27T13:58:15.536Z,75.20
2018-02-27T14:00:44.770Z,78.50
2018-02-27T14:03:14.334Z,79.50
2018-02-27T14:05:42.763Z,79.50
2018-02-27T14:08:12.015Z,73.50
2018-02-27T14:10:40.434Z,73.40
2018-02-27T14:13:09.579Z,72.10
2018-02-27T14:15:38.233Z,72.20
2018-02-27T14:18:06.635Z,69.10
2018-02-27T14:20:35.307Z,70.30
2018-02-27T14:23:03.695Z,72.60
2018-02-27T14:25:33.003Z,69.40
2018-02-27T14:28:01.607Z,69.40
2018-02-27T14:30:30.017Z,73.20
2018-02-27T14:32:59.184Z,72.30
2018-02-27T14:35:27.839Z,72.20
2018-02-27T14:37:56.227Z,69.80
2018-02-27T14:40:25.168Z,71.70
2018-02-27T14:42:53.856Z,75.30
2018-02-27T14:45:22.518Z,80.50
2018-02-27T14:47:50.954Z,77.10
2018-02-27T14:50:20.382Z,77.80
2018-02-27T14:52:49.058Z,77.70
2018-02-27T14:55:17.445Z,81.10
2018-02-27T14:57:45.958Z,81.50
2018-02-27T15:00:15.106Z,89.20
2018-02-27T15:02:43.790Z,89.10
2018-02-27T15:05:12.166Z,91.10
2018-02-27T15:07:40.561Z,92.80
2018-02-27T15:10:09.041Z,88.50
2018-02-27T15:12:37.675Z,90.20
2018-02-27T15:15:06.295Z,86.80
2018-02-27T15:17:35.064Z,87.10
2018-02-27T15:20:04.481Z,90.70
2018-02-27T15:22:32.696Z,90.70
2018-02-27T15:25:01.359Z,91.60
2018-02-27T15:27:30.019Z,91.70
2018-02-27T15:29:58.410Z,93.30
2018-02-27T15:32:27.075Z,91.30
2018-02-27T15:34:56.406Z,93.10
2018-02-27T15:37:25.054Z,94.40
2018-02-27T15:39:53.604Z,94.90
2018-02-27T15:42:22.407Z,95.80
2018-02-27T15:44:51.865Z,95.20
2018-02-27T15:47:20.563Z,95.20
2018-02-27T15:49:49.288Z,96.00
2018-02-27T15:52:18.120Z,97.70
2018-02-27T15:54:47.423Z,99.90
2018-02-27T15:57:16.080Z,99.90
2018-02-27T15:59:45.883Z,98.80
2018-02-27T16:02:14.268Z,98.80
2018-02-27T16:04:43.698Z,99.20
2018-02-27T16:07:12.982Z,99.60
2018-02-27T16:09:41.384Z,99.50
2018-02-27T16:12:09.762Z,99.30
2018-02-27T16:14:38.327Z,98.20
2018-02-27T16:17:06.746Z,98.50
2018-02-27T16:19:35.568Z,99.30
2018-02-27T16:22:03.950Z,98.60
2018-02-27T16:24:32.350Z,98.20
2018-02-27T16:27:00.737Z,99.00
2018-02-27T16:29:29.398Z,98.70
2018-02-27T16:31:57.790Z,98.60
2018-02-27T16:34:26.457Z,98.80
2018-02-27T16:36:55.045Z,96.70
2018-02-27T16:39:23.436Z,98.80
2018-02-27T16:41:52.039Z,98.50
2018-02-27T16:44:20.942Z,99.30
2018-02-27T16:46:50.397Z,99.90
2018-02-27T16:49:18.787Z,99.90
2018-02-27T16:51:47.459Z,99.90
2018-02-27T16:54:16.026Z,99.90
2018-02-27T16:56:44.651Z,99.90
2018-02-27T16:59:13.302Z,99.90
2018-02-27T17:01:42.755Z,99.90
2018-02-27T17:04:11.686Z,99.90
2018-02-27T17:06:40.419Z,99.90
2018-02-27T17:09:09.079Z,99.90
2018-02-27T17:11:37.844Z,99.90
2018-02-27T17:14:07.275Z,99.90
2018-02-27T17:16:35.674Z,99.90
2018-02-27T17:19:04.106Z,99.90
2018-02-27T17:21:33.536Z,99.90
2018-02-27T17:24:01.942Z,99.90
2018-02-27T17:26:30.626Z,99.90
2018-02-27T17:28:59.306Z,99.90
2018-02-27T17:31:27.686Z,99.90
2018-02-27T17:33:56.366Z,99.90
2018-02-27T17:36:25.018Z,99.90
2018-02-27T17:38:53.690Z,99.90
2018-02-27T17:41:22.186Z,99.90
2018-02-27T17:43:50.690Z,99.90
2018-02-27T17:46:19.349Z,99.90
2018-02-27T17:48:53.672Z,99.90
2018-02-27T17:51:22.358Z,99.90
2018-02-27T17:53:50.768Z,99.90
2018-02-27T17:56:19.444Z,99.90
2018-02-27T17:58:48.111Z,99.90
2018-02-27T18:01:16.583Z,99.90
2018-02-27T18:03:45.348Z,99.90
2018-02-27T18:06:14.106Z,99.90
2018-02-27T18:08:42.715Z,99.90
2018-02-27T18:11:12.138Z,99.90
2018-02-27T18:13:40.598Z,99.90
2018-02-27T18:16:10.109Z,99.90
2018-02-27T18:18:39.539Z,99.90
2018-02-27T18:21:07.926Z,99.90
2018-02-27T18:23:36.361Z,99.90
2018-02-27T18:26:04.889Z,99.90
2018-02-27T18:28:34.068Z,99.90
2018-02-27T18:31:02.463Z,99.90
2018-02-27T18:33:30.841Z,99.90
2018-02-27T18:35:59.233Z,99.90
2018-02-27T18:38:27.924Z,99.90
2018-02-27T18:40:57.093Z,99.90
2018-02-27T18:43:25.755Z,99.90
2018-02-27T18:45:54.424Z,99.90
2018-02-27T18:48:23.848Z,99.90
2018-02-27T18:50:52.255Z,99.90
2018-02-27T18:53:20.913Z,99.90
2018-02-27T18:55:49.311Z,99.90
2018-02-27T18:58:18.699Z,99.90
2018-02-27T19:00:47.103Z,99.90
2018-02-27T19:03:15.755Z,99.90
2018-02-27T19:05:44.240Z,99.90
2018-02-27T19:08:12.919Z,99.90
2018-02-27T19:10:41.680Z,99.90
2018-02-27T19:13:10.915Z,99.90
2018-02-27T19:15:39.611Z,99.90
2018-02-27T19:18:09.096Z,99.90
2018-02-27T19:20:37.754Z,99.90
2018-02-27T19:23:06.167Z,99.90
2018-02-27T19:25:34.674Z,99.90
2018-02-27T19:28:03.365Z,99.90
2018-02-27T19:30:32.518Z,99.90
2018-02-27T19:33:01.190Z,99.90
2018-02-27T19:35:29.578Z,99.90
2018-02-27T19:37:57.966Z,99.90
2018-02-27T19:40:26.488Z,99.90
2018-02-27T19:42:55.406Z,99.90
2018-02-27T19:45:23.889Z,99.90
2018-02-27T19:47:53.486Z,99.90
2018-02-27T19:50:21.894Z,99.90
2018-02-27T19:52:50.482Z,99.90
2018-02-27T19:55:18.869Z,99.90
2018-02-27T19:57:47.538Z,99.90
2018-02-27T20:00:16.008Z,99.90
2018-02-27T20:02:44.452Z,99.90
2018-02-27T20:05:13.943Z,99.90
2018-02-27T20:07:42.508Z,99.90
2018-02-27T20:10:11.179Z,99.90
2018-02-27T20:12:39.667Z,99.90
2018-02-27T20:15:08.051Z,99.90
2018-02-27T20:17:42.430Z,99.90
2018-02-27T20:20:11.106Z,99.90
2018-02-27T20:22:45.258Z,99.90
2018-02-27T20:25:13.868Z,99.90
2018-02-27T20:27:42.347Z,99.90
2018-02-27T20:30:11.534Z,99.90
2018-02-27T20:32:40.208Z,99.90
2018-02-27T20:35:08.604Z,99.90
2018-02-27T20:37:37.282Z,99.90
2018-02-27T20:40:05.680Z,99.90
2018-02-27T20:42:34.341Z,99.90
2018-02-27T20:45:03.133Z,99.90
2018-02-27T20:47:31.851Z,99.90
2018-02-27T20:50:00.565Z,99.90
2018-02-27T20:52:31.572Z,99.90
2018-02-27T20:55:00.250Z,99.90
2018-02-27T20:57:28.634Z,99.90
2018-02-27T20:59:57.323Z,99.90
2018-02-27T21:02:25.961Z,99.90
2018-02-27T21:04:54.361Z,99.90
2018-02-27T21:07:23.516Z,99.90
2018-02-27T21:09:52.203Z,99.90
2018-02-27T21:12:20.871Z,99.90
2018-02-27T21:14:49.356Z,99.90
2018-02-27T21:17:18.816Z,99.90
2018-02-27T21:19:48.183Z,99.90
2018-02-27T21:22:16.571Z,99.90
2018-02-27T21:24:45.250Z,99.90
2018-02-27T21:27:13.631Z,99.90
2018-02-27T21:29:42.191Z,99.90
2018-02-27T21:32:10.574Z,99.90
2018-02-27T21:34:39.095Z,99.90
2018-02-27T21:37:08.414Z,99.90
2018-02-27T21:39:36.848Z,99.90
2018-02-27T21:42:05.428Z,99.90
2018-02-27T21:44:34.166Z,99.90
2018-02-27T21:47:03.624Z,99.90
2018-02-27T21:49:32.334Z,99.90
2018-02-27T21:52:01.006Z,99.90
2018-02-27T21:54:29.683Z,99.90
2018-02-27T21:56:58.149Z,99.90
2018-02-27T21:59:27.634Z,99.90
2018-02-27T22:01:56.038Z,99.90
2018-02-27T22:04:24.421Z,99.90
2018-02-27T22:06:52.822Z,99.90
2018-02-27T22:09:21.978Z,99.90
2018-02-27T22:11:50.373Z,99.90
2018-02-27T22:14:18.763Z,99.90
2018-02-27T22:16:47.486Z,99.90
2018-02-27T22:19:16.299Z,99.90
2018-02-27T22:21:45.001Z,99.90
2018-02-27T22:24:13.560Z,99.90
2018-02-27T22:26:41.963Z,99.90
2018-02-27T22:29:11.454Z,99.90
2018-02-27T22:31:39.865Z,99.90
2018-02-27T22:34:08.723Z,99.90
2018-02-27T22:36:37.111Z,99.90
2018-02-27T22:39:06.611Z,99.90
2018-02-27T22:41:35.286Z,99.90
2018-02-27T22:44:03.679Z,99.90
2018-02-27T22:46:32.080Z,99.90
2018-02-27T22:49:00.754Z,99.90
2018-02-27T22:51:29.480Z,99.90
2018-02-27T22:53:58.922Z,99.90
2018-02-27T22:56:27.430Z,99.90
2018-02-27T22:58:56.193Z,99.90
2018-02-27T23:01:24.578Z,99.90
2018-02-27T23:03:53.242Z,99.90
2018-02-27T23:06:23.286Z,99.90
2018-02-27T23:08:51.922Z,99.90
2018-02-27T23:11:21.354Z,99.90
2018-02-27T23:13:50.022Z,99.90
2018-02-27T23:16:18.526Z,99.90
2018-02-27T23:18:46.898Z,99.90
2018-02-27T23:21:15.553Z,99.90
2018-02-27T23:23:45.580Z,99.90
2018-02-27T23:26:24.694Z,99.90
2018-02-27T23:28:54.561Z,99.90
2018-02-27T23:31:24.266Z,99.90
2018-02-27T23:33:59.907Z,99.90
2018-02-27T23:36:28.359Z,99.90
2018-02-27T23:38:56.754Z,99.90
2018-02-27T23:41:25.262Z,99.90
2018-02-27T23:43:54.422Z,99.90
2018-02-27T23:46:22.818Z,99.90
2018-02-27T23:48:51.213Z,99.90
2018-02-27T23:51:19.681Z,99.90
2018-02-27T23:53:48.106Z,99.90
2018-02-27T23:56:17.537Z,99.90
2018-02-27T23:58:46.212Z,99.90
